sensor_id;sensor_type;location;lat;lon;timestamp;P1;durP1;ratioP1;P2;durP2;ratioP2
43606;SDS011;29197;44.788;10.366;2023-02-03T00:01:21;7.87;;;4.57;;
43606;SDS011;29197;44.788;10.366;2023-02-03T00:04:09;9.90;;;5.03;;
43606;SDS011;29197;44.788;10.366;2023-02-03T00:06:58;8.63;;;4.60;;
43606;SDS011;29197;44.788;10.366;2023-02-03T00:09:46;6.17;;;4.37;;
43606;SDS011;29197;44.788;10.366;2023-02-03T00:12:35;7.17;;;4.07;;
43606;SDS011;29197;44.788;10.366;2023-02-03T00:15:23;8.20;;;4.00;;
43606;SDS011;29197;44.788;10.366;2023-02-03T00:18:13;7.57;;;4.50;;
43606;SDS011;29197;44.788;10.366;2023-02-03T00:21:02;8.93;;;4.00;;
43606;SDS011;29197;44.788;10.366;2023-02-03T00:23:50;5.63;;;3.73;;
43606;SDS011;29197;44.788;10.366;2023-02-03T00:26:40;5.53;;;3.60;;
43606;SDS011;29197;44.788;10.366;2023-02-03T00:29:29;10.23;;;3.67;;
43606;SDS011;29197;44.788;10.366;2023-02-03T00:32:17;5.77;;;3.60;;
43606;SDS011;29197;44.788;10.366;2023-02-03T00:35:07;6.80;;;3.80;;
43606;SDS011;29197;44.788;10.366;2023-02-03T00:37:56;7.13;;;4.10;;
43606;SDS011;29197;44.788;10.366;2023-02-03T00:40:50;7.63;;;3.57;;
43606;SDS011;29197;44.788;10.366;2023-02-03T00:43:39;5.40;;;3.37;;
43606;SDS011;29197;44.788;10.366;2023-02-03T00:46:27;5.27;;;3.50;;
43606;SDS011;29197;44.788;10.366;2023-02-03T00:49:16;6.17;;;3.90;;
43606;SDS011;29197;44.788;10.366;2023-02-03T00:52:06;5.17;;;3.53;;
43606;SDS011;29197;44.788;10.366;2023-02-03T00:54:54;8.30;;;4.10;;
43606;SDS011;29197;44.788;10.366;2023-02-03T00:57:43;5.30;;;3.50;;
43606;SDS011;29197;44.788;10.366;2023-02-03T01:00:31;7.27;;;3.87;;
43606;SDS011;29197;44.788;10.366;2023-02-03T01:03:19;7.53;;;3.57;;
43606;SDS011;29197;44.788;10.366;2023-02-03T01:06:11;5.27;;;3.50;;
43606;SDS011;29197;44.788;10.366;2023-02-03T01:09:03;6.10;;;3.70;;
43606;SDS011;29197;44.788;10.366;2023-02-03T01:11:51;8.33;;;3.57;;
43606;SDS011;29197;44.788;10.366;2023-02-03T01:14:40;8.30;;;3.60;;
43606;SDS011;29197;44.788;10.366;2023-02-03T01:17:28;6.73;;;4.10;;
43606;SDS011;29197;44.788;10.366;2023-02-03T01:20:17;6.40;;;3.67;;
43606;SDS011;29197;44.788;10.366;2023-02-03T01:23:07;7.13;;;4.70;;
43606;SDS011;29197;44.788;10.366;2023-02-03T01:25:56;6.40;;;4.17;;
43606;SDS011;29197;44.788;10.366;2023-02-03T01:28:49;7.73;;;4.33;;
43606;SDS011;29197;44.788;10.366;2023-02-03T01:31:39;7.10;;;3.77;;
43606;SDS011;29197;44.788;10.366;2023-02-03T01:34:29;8.73;;;3.73;;
43606;SDS011;29197;44.788;10.366;2023-02-03T01:37:17;8.27;;;3.77;;
43606;SDS011;29197;44.788;10.366;2023-02-03T01:40:06;6.63;;;3.90;;
43606;SDS011;29197;44.788;10.366;2023-02-03T01:42:57;5.60;;;3.70;;
43606;SDS011;29197;44.788;10.366;2023-02-03T01:45:45;6.60;;;4.23;;
43606;SDS011;29197;44.788;10.366;2023-02-03T01:48:34;5.27;;;4.00;;
43606;SDS011;29197;44.788;10.366;2023-02-03T01:51:23;6.07;;;4.00;;
43606;SDS011;29197;44.788;10.366;2023-02-03T01:54:13;7.50;;;3.77;;
43606;SDS011;29197;44.788;10.366;2023-02-03T01:57:06;6.13;;;3.80;;
43606;SDS011;29197;44.788;10.366;2023-02-03T02:00:03;7.60;;;4.17;;
43606;SDS011;29197;44.788;10.366;2023-02-03T02:02:53;6.53;;;3.90;;
43606;SDS011;29197;44.788;10.366;2023-02-03T02:05:45;6.33;;;4.30;;
43606;SDS011;29197;44.788;10.366;2023-02-03T02:08:35;8.77;;;4.20;;
43606;SDS011;29197;44.788;10.366;2023-02-03T02:11:25;6.87;;;3.60;;
43606;SDS011;29197;44.788;10.366;2023-02-03T02:14:14;7.03;;;3.90;;
43606;SDS011;29197;44.788;10.366;2023-02-03T02:17:05;6.17;;;3.93;;
43606;SDS011;29197;44.788;10.366;2023-02-03T02:20:11;5.90;;;3.50;;
43606;SDS011;29197;44.788;10.366;2023-02-03T02:23:35;5.13;;;3.20;;
43606;SDS011;29197;44.788;10.366;2023-02-03T02:26:47;5.10;;;3.30;;
43606;SDS011;29197;44.788;10.366;2023-02-03T02:33:24;5.50;;;3.57;;
43606;SDS011;29197;44.788;10.366;2023-02-03T02:36:23;6.40;;;3.67;;
43606;SDS011;29197;44.788;10.366;2023-02-03T02:39:18;5.40;;;2.97;;
43606;SDS011;29197;44.788;10.366;2023-02-03T02:42:13;7.10;;;3.33;;
43606;SDS011;29197;44.788;10.366;2023-02-03T02:45:11;5.70;;;3.30;;
43606;SDS011;29197;44.788;10.366;2023-02-03T02:48:05;5.47;;;3.40;;
43606;SDS011;29197;44.788;10.366;2023-02-03T02:50:58;4.53;;;3.10;;
43606;SDS011;29197;44.788;10.366;2023-02-03T02:53:51;4.33;;;2.93;;
43606;SDS011;29197;44.788;10.366;2023-02-03T02:56:42;3.97;;;2.70;;
43606;SDS011;29197;44.788;10.366;2023-02-03T02:59:34;3.13;;;2.43;;
43606;SDS011;29197;44.788;10.366;2023-02-03T03:02:28;2.70;;;2.30;;
43606;SDS011;29197;44.788;10.366;2023-02-03T03:05:19;3.30;;;2.50;;
43606;SDS011;29197;44.788;10.366;2023-02-03T03:08:09;4.63;;;2.23;;
43606;SDS011;29197;44.788;10.366;2023-02-03T03:11:01;4.03;;;2.20;;
43606;SDS011;29197;44.788;10.366;2023-02-03T03:13:51;4.60;;;2.20;;
43606;SDS011;29197;44.788;10.366;2023-02-03T03:16:42;4.40;;;3.00;;
43606;SDS011;29197;44.788;10.366;2023-02-03T03:19:36;3.27;;;2.43;;
43606;SDS011;29197;44.788;10.366;2023-02-03T03:22:29;4.97;;;2.57;;
43606;SDS011;29197;44.788;10.366;2023-02-03T03:25:24;3.17;;;2.30;;
43606;SDS011;29197;44.788;10.366;2023-02-03T03:28:21;3.67;;;2.30;;
43606;SDS011;29197;44.788;10.366;2023-02-03T03:31:17;2.43;;;2.20;;
43606;SDS011;29197;44.788;10.366;2023-02-03T03:34:07;6.23;;;2.50;;
43606;SDS011;29197;44.788;10.366;2023-02-03T03:36:59;2.87;;;2.10;;
43606;SDS011;29197;44.788;10.366;2023-02-03T03:39:50;7.93;;;2.60;;
43606;SDS011;29197;44.788;10.366;2023-02-03T03:42:44;3.20;;;2.20;;
43606;SDS011;29197;44.788;10.366;2023-02-03T03:45:37;3.00;;;2.43;;
43606;SDS011;29197;44.788;10.366;2023-02-03T03:48:31;4.30;;;2.23;;
43606;SDS011;29197;44.788;10.366;2023-02-03T03:51:24;4.03;;;2.40;;
43606;SDS011;29197;44.788;10.366;2023-02-03T03:54:17;3.73;;;2.27;;
43606;SDS011;29197;44.788;10.366;2023-02-03T03:57:10;1.97;;;1.77;;
43606;SDS011;29197;44.788;10.366;2023-02-03T04:00:04;2.70;;;1.70;;
43606;SDS011;29197;44.788;10.366;2023-02-03T04:02:57;4.00;;;2.33;;
43606;SDS011;29197;44.788;10.366;2023-02-03T04:05:48;5.47;;;2.03;;
43606;SDS011;29197;44.788;10.366;2023-02-03T04:08:37;3.57;;;2.00;;
43606;SDS011;29197;44.788;10.366;2023-02-03T04:11:25;3.43;;;1.80;;
43606;SDS011;29197;44.788;10.366;2023-02-03T04:14:32;6.37;;;2.33;;
43606;SDS011;29197;44.788;10.366;2023-02-03T04:17:25;2.60;;;1.60;;
43606;SDS011;29197;44.788;10.366;2023-02-03T04:20:14;3.30;;;2.07;;
43606;SDS011;29197;44.788;10.366;2023-02-03T04:23:03;3.83;;;2.10;;
43606;SDS011;29197;44.788;10.366;2023-02-03T04:25:51;4.57;;;2.30;;
43606;SDS011;29197;44.788;10.366;2023-02-03T04:28:40;3.13;;;1.70;;
43606;SDS011;29197;44.788;10.366;2023-02-03T04:31:30;3.57;;;1.83;;
43606;SDS011;29197;44.788;10.366;2023-02-03T04:34:20;2.63;;;1.57;;
43606;SDS011;29197;44.788;10.366;2023-02-03T04:37:08;3.13;;;1.80;;
43606;SDS011;29197;44.788;10.366;2023-02-03T04:39:57;2.17;;;1.53;;
43606;SDS011;29197;44.788;10.366;2023-02-03T04:42:45;1.47;;;1.37;;
43606;SDS011;29197;44.788;10.366;2023-02-03T04:45:34;2.27;;;1.53;;
43606;SDS011;29197;44.788;10.366;2023-02-03T04:48:23;3.47;;;1.33;;
43606;SDS011;29197;44.788;10.366;2023-02-03T04:51:13;3.60;;;1.63;;
43606;SDS011;29197;44.788;10.366;2023-02-03T04:54:01;2.47;;;1.70;;
43606;SDS011;29197;44.788;10.366;2023-02-03T04:56:50;4.07;;;1.83;;
43606;SDS011;29197;44.788;10.366;2023-02-03T04:59:38;2.77;;;1.80;;
43606;SDS011;29197;44.788;10.366;2023-02-03T05:02:27;2.83;;;1.50;;
43606;SDS011;29197;44.788;10.366;2023-02-03T05:05:15;22.67;;;8.50;;
43606;SDS011;29197;44.788;10.366;2023-02-03T05:08:05;15.50;;;6.10;;
43606;SDS011;29197;44.788;10.366;2023-02-03T05:10:54;53.17;;;18.97;;
43606;SDS011;29197;44.788;10.366;2023-02-03T05:13:42;21.23;;;9.43;;
43606;SDS011;29197;44.788;10.366;2023-02-03T05:16:31;8.97;;;4.10;;
43606;SDS011;29197;44.788;10.366;2023-02-03T05:19:20;4.03;;;2.57;;
43606;SDS011;29197;44.788;10.366;2023-02-03T05:22:08;3.73;;;2.00;;
43606;SDS011;29197;44.788;10.366;2023-02-03T05:24:58;3.73;;;2.53;;
43606;SDS011;29197;44.788;10.366;2023-02-03T05:27:46;5.80;;;2.37;;
43606;SDS011;29197;44.788;10.366;2023-02-03T05:30:35;5.07;;;2.23;;
43606;SDS011;29197;44.788;10.366;2023-02-03T05:33:23;3.43;;;1.80;;
43606;SDS011;29197;44.788;10.366;2023-02-03T05:36:12;2.77;;;1.70;;
43606;SDS011;29197;44.788;10.366;2023-02-03T05:39:00;5.27;;;1.73;;
43606;SDS011;29197;44.788;10.366;2023-02-03T05:41:50;2.83;;;1.93;;
43606;SDS011;29197;44.788;10.366;2023-02-03T05:44:37;1.70;;;1.60;;
43606;SDS011;29197;44.788;10.366;2023-02-03T05:47:26;2.60;;;1.73;;
43606;SDS011;29197;44.788;10.366;2023-02-03T05:50:14;2.77;;;1.60;;
43606;SDS011;29197;44.788;10.366;2023-02-03T05:53:04;5.37;;;2.30;;
43606;SDS011;29197;44.788;10.366;2023-02-03T05:55:53;2.23;;;1.60;;
43606;SDS011;29197;44.788;10.366;2023-02-03T05:58:43;3.13;;;1.53;;
43606;SDS011;29197;44.788;10.366;2023-02-03T06:01:32;3.27;;;1.77;;
43606;SDS011;29197;44.788;10.366;2023-02-03T06:04:21;2.63;;;1.80;;
43606;SDS011;29197;44.788;10.366;2023-02-03T06:07:09;10.87;;;6.20;;
43606;SDS011;29197;44.788;10.366;2023-02-03T06:09:57;11.60;;;6.27;;
43606;SDS011;29197;44.788;10.366;2023-02-03T06:12:46;8.17;;;4.47;;
43606;SDS011;29197;44.788;10.366;2023-02-03T06:15:36;6.17;;;3.40;;
43606;SDS011;29197;44.788;10.366;2023-02-03T06:18:24;21.00;;;9.70;;
43606;SDS011;29197;44.788;10.366;2023-02-03T06:21:13;14.20;;;7.00;;
43606;SDS011;29197;44.788;10.366;2023-02-03T06:24:01;9.37;;;5.00;;
43606;SDS011;29197;44.788;10.366;2023-02-03T06:26:50;6.90;;;3.70;;
43606;SDS011;29197;44.788;10.366;2023-02-03T06:29:39;8.80;;;5.30;;
43606;SDS011;29197;44.788;10.366;2023-02-03T06:32:28;7.83;;;5.07;;
43606;SDS011;29197;44.788;10.366;2023-02-03T06:35:17;7.73;;;5.13;;
43606;SDS011;29197;44.788;10.366;2023-02-03T06:38:05;11.00;;;3.83;;
43606;SDS011;29197;44.788;10.366;2023-02-03T06:40:54;4.90;;;3.27;;
43606;SDS011;29197;44.788;10.366;2023-02-03T06:43:42;5.30;;;3.40;;
43606;SDS011;29197;44.788;10.366;2023-02-03T06:46:31;2.87;;;2.57;;
43606;SDS011;29197;44.788;10.366;2023-02-03T06:49:21;9.77;;;6.93;;
43606;SDS011;29197;44.788;10.366;2023-02-03T06:52:09;5.90;;;3.10;;
43606;SDS011;29197;44.788;10.366;2023-02-03T06:54:58;8.40;;;3.97;;
43606;SDS011;29197;44.788;10.366;2023-02-03T06:57:47;5.83;;;3.53;;
43606;SDS011;29197;44.788;10.366;2023-02-03T07:00:35;8.20;;;4.97;;
43606;SDS011;29197;44.788;10.366;2023-02-03T07:03:24;7.47;;;5.40;;
43606;SDS011;29197;44.788;10.366;2023-02-03T07:06:14;11.87;;;5.80;;
43606;SDS011;29197;44.788;10.366;2023-02-03T07:09:03;11.47;;;6.37;;
43606;SDS011;29197;44.788;10.366;2023-02-03T07:11:52;8.13;;;5.93;;
43606;SDS011;29197;44.788;10.366;2023-02-03T07:14:41;11.27;;;6.47;;
43606;SDS011;29197;44.788;10.366;2023-02-03T07:17:29;9.97;;;5.80;;
43606;SDS011;29197;44.788;10.366;2023-02-03T07:20:18;13.07;;;6.27;;
43606;SDS011;29197;44.788;10.366;2023-02-03T07:23:09;9.20;;;5.50;;
43606;SDS011;29197;44.788;10.366;2023-02-03T07:25:57;11.23;;;5.03;;
43606;SDS011;29197;44.788;10.366;2023-02-03T07:28:46;7.63;;;5.63;;
43606;SDS011;29197;44.788;10.366;2023-02-03T07:31:34;10.40;;;5.33;;
43606;SDS011;29197;44.788;10.366;2023-02-03T07:34:24;10.43;;;5.40;;
43606;SDS011;29197;44.788;10.366;2023-02-03T07:37:12;21.70;;;11.90;;
43606;SDS011;29197;44.788;10.366;2023-02-03T07:40:02;32.43;;;15.53;;
43606;SDS011;29197;44.788;10.366;2023-02-03T07:42:51;39.20;;;15.70;;
43606;SDS011;29197;44.788;10.366;2023-02-03T07:45:40;31.83;;;16.33;;
43606;SDS011;29197;44.788;10.366;2023-02-03T07:48:28;29.90;;;15.23;;
43606;SDS011;29197;44.788;10.366;2023-02-03T07:51:17;37.57;;;18.60;;
43606;SDS011;29197;44.788;10.366;2023-02-03T07:54:05;39.47;;;21.47;;
43606;SDS011;29197;44.788;10.366;2023-02-03T07:56:55;132.87;;;54.10;;
43606;SDS011;29197;44.788;10.366;2023-02-03T07:59:44;44.07;;;22.33;;
43606;SDS011;29197;44.788;10.366;2023-02-03T08:02:32;41.43;;;22.07;;
43606;SDS011;29197;44.788;10.366;2023-02-03T08:05:20;45.90;;;22.50;;
43606;SDS011;29197;44.788;10.366;2023-02-03T08:08:09;46.13;;;23.93;;
43606;SDS011;29197;44.788;10.366;2023-02-03T08:10:57;44.30;;;24.20;;
43606;SDS011;29197;44.788;10.366;2023-02-03T08:13:47;45.17;;;22.93;;
43606;SDS011;29197;44.788;10.366;2023-02-03T08:16:36;51.50;;;27.20;;
43606;SDS011;29197;44.788;10.366;2023-02-03T08:19:24;51.87;;;29.90;;
43606;SDS011;29197;44.788;10.366;2023-02-03T08:22:13;56.53;;;29.33;;
43606;SDS011;29197;44.788;10.366;2023-02-03T08:25:02;51.33;;;32.33;;
43606;SDS011;29197;44.788;10.366;2023-02-03T08:27:51;53.43;;;31.80;;
43606;SDS011;29197;44.788;10.366;2023-02-03T08:30:41;52.47;;;31.97;;
43606;SDS011;29197;44.788;10.366;2023-02-03T08:33:30;54.27;;;33.67;;
43606;SDS011;29197;44.788;10.366;2023-02-03T08:36:18;57.13;;;35.03;;
43606;SDS011;29197;44.788;10.366;2023-02-03T08:39:07;66.37;;;38.07;;
43606;SDS011;29197;44.788;10.366;2023-02-03T08:41:55;59.03;;;35.83;;
43606;SDS011;29197;44.788;10.366;2023-02-03T08:44:44;71.43;;;40.53;;
43606;SDS011;29197;44.788;10.366;2023-02-03T08:47:34;66.83;;;39.67;;
43606;SDS011;29197;44.788;10.366;2023-02-03T08:50:23;69.50;;;38.33;;
43606;SDS011;29197;44.788;10.366;2023-02-03T08:53:12;67.60;;;40.50;;
43606;SDS011;29197;44.788;10.366;2023-02-03T08:56:03;67.07;;;38.83;;
43606;SDS011;29197;44.788;10.366;2023-02-03T08:58:52;73.67;;;42.27;;
43606;SDS011;29197;44.788;10.366;2023-02-03T09:01:41;62.13;;;35.10;;
43606;SDS011;29197;44.788;10.366;2023-02-03T09:04:33;70.13;;;38.20;;
43606;SDS011;29197;44.788;10.366;2023-02-03T09:07:22;80.03;;;40.50;;
43606;SDS011;29197;44.788;10.366;2023-02-03T09:10:10;66.40;;;39.23;;
43606;SDS011;29197;44.788;10.366;2023-02-03T09:12:58;78.83;;;46.23;;
43606;SDS011;29197;44.788;10.366;2023-02-03T09:15:47;71.63;;;40.87;;
43606;SDS011;29197;44.788;10.366;2023-02-03T09:18:36;65.57;;;36.27;;
43606;SDS011;29197;44.788;10.366;2023-02-03T09:21:27;56.60;;;34.53;;
43606;SDS011;29197;44.788;10.366;2023-02-03T09:24:29;62.00;;;35.87;;
43606;SDS011;29197;44.788;10.366;2023-02-03T09:27:17;64.30;;;36.33;;
43606;SDS011;29197;44.788;10.366;2023-02-03T09:30:06;63.07;;;34.60;;
43606;SDS011;29197;44.788;10.366;2023-02-03T09:32:55;64.90;;;35.63;;
43606;SDS011;29197;44.788;10.366;2023-02-03T09:35:50;84.77;;;42.20;;
43606;SDS011;29197;44.788;10.366;2023-02-03T09:38:40;106.97;;;52.23;;
43606;SDS011;29197;44.788;10.366;2023-02-03T09:41:34;75.40;;;40.63;;
43606;SDS011;29197;44.788;10.366;2023-02-03T09:44:35;63.90;;;37.43;;
43606;SDS011;29197;44.788;10.366;2023-02-03T09:47:31;84.40;;;47.43;;
43606;SDS011;29197;44.788;10.366;2023-02-03T09:50:23;72.53;;;40.73;;
43606;SDS011;29197;44.788;10.366;2023-02-03T09:53:18;62.63;;;35.80;;
43606;SDS011;29197;44.788;10.366;2023-02-03T09:59:10;61.43;;;35.30;;
43606;SDS011;29197;44.788;10.366;2023-02-03T10:01:59;65.03;;;37.13;;
43606;SDS011;29197;44.788;10.366;2023-02-03T10:04:56;58.63;;;31.97;;
43606;SDS011;29197;44.788;10.366;2023-02-03T10:07:50;66.63;;;38.37;;
43606;SDS011;29197;44.788;10.366;2023-02-03T10:10:47;72.80;;;42.93;;
43606;SDS011;29197;44.788;10.366;2023-02-03T10:14:00;65.37;;;37.57;;
43606;SDS011;29197;44.788;10.366;2023-02-03T10:17:03;63.50;;;39.17;;
43606;SDS011;29197;44.788;10.366;2023-02-03T10:20:02;71.43;;;39.90;;
43606;SDS011;29197;44.788;10.366;2023-02-03T10:22:54;76.70;;;39.57;;
43606;SDS011;29197;44.788;10.366;2023-02-03T10:25:48;74.83;;;40.67;;
43606;SDS011;29197;44.788;10.366;2023-02-03T10:28:44;69.27;;;38.70;;
43606;SDS011;29197;44.788;10.366;2023-02-03T10:31:39;68.33;;;37.10;;
43606;SDS011;29197;44.788;10.366;2023-02-03T10:34:32;65.20;;;37.43;;
43606;SDS011;29197;44.788;10.366;2023-02-03T10:37:23;69.33;;;37.77;;
43606;SDS011;29197;44.788;10.366;2023-02-03T10:40:16;76.53;;;38.83;;
43606;SDS011;29197;44.788;10.366;2023-02-03T10:43:04;100.70;;;49.43;;
43606;SDS011;29197;44.788;10.366;2023-02-03T10:46:10;97.73;;;46.23;;
43606;SDS011;29197;44.788;10.366;2023-02-03T10:49:00;74.67;;;41.20;;
43606;SDS011;29197;44.788;10.366;2023-02-03T10:51:49;68.53;;;38.57;;
43606;SDS011;29197;44.788;10.366;2023-02-03T10:54:40;100.47;;;49.87;;
43606;SDS011;29197;44.788;10.366;2023-02-03T10:57:28;80.33;;;43.07;;
43606;SDS011;29197;44.788;10.366;2023-02-03T11:00:21;68.00;;;38.50;;
43606;SDS011;29197;44.788;10.366;2023-02-03T11:03:15;76.30;;;41.87;;
43606;SDS011;29197;44.788;10.366;2023-02-03T11:06:11;78.67;;;40.90;;
43606;SDS011;29197;44.788;10.366;2023-02-03T11:09:01;83.43;;;40.83;;
43606;SDS011;29197;44.788;10.366;2023-02-03T11:12:11;75.67;;;40.70;;
43606;SDS011;29197;44.788;10.366;2023-02-03T11:15:04;79.37;;;42.50;;
43606;SDS011;29197;44.788;10.366;2023-02-03T11:17:54;84.13;;;42.57;;
43606;SDS011;29197;44.788;10.366;2023-02-03T11:20:42;84.97;;;43.97;;
43606;SDS011;29197;44.788;10.366;2023-02-03T11:23:32;86.57;;;42.60;;
43606;SDS011;29197;44.788;10.366;2023-02-03T11:26:22;93.60;;;47.93;;
43606;SDS011;29197;44.788;10.366;2023-02-03T11:29:15;93.40;;;46.20;;
43606;SDS011;29197;44.788;10.366;2023-02-03T11:32:14;92.90;;;46.63;;
43606;SDS011;29197;44.788;10.366;2023-02-03T11:35:12;99.23;;;47.90;;
43606;SDS011;29197;44.788;10.366;2023-02-03T11:38:03;93.43;;;46.37;;
43606;SDS011;29197;44.788;10.366;2023-02-03T11:40:54;94.40;;;47.43;;
43606;SDS011;29197;44.788;10.366;2023-02-03T11:43:46;87.53;;;44.87;;
43606;SDS011;29197;44.788;10.366;2023-02-03T11:46:35;85.27;;;45.37;;
43606;SDS011;29197;44.788;10.366;2023-02-03T11:56:18;95.83;;;47.80;;
43606;SDS011;29197;44.788;10.366;2023-02-03T11:59:19;97.23;;;46.77;;
43606;SDS011;29197;44.788;10.366;2023-02-03T12:06:07;90.93;;;45.83;;
43606;SDS011;29197;44.788;10.366;2023-02-03T12:09:15;94.00;;;46.73;;
43606;SDS011;29197;44.788;10.366;2023-02-03T12:12:20;101.05;;;48.42;;
43606;SDS011;29197;44.788;10.366;2023-02-03T12:15:35;88.97;;;44.85;;
43606;SDS011;29197;44.788;10.366;2023-02-03T12:18:41;92.35;;;45.70;;
43606;SDS011;29197;44.788;10.366;2023-02-03T12:21:42;87.25;;;44.72;;
43606;SDS011;29197;44.788;10.366;2023-02-03T12:24:35;92.32;;;47.42;;
43606;SDS011;29197;44.788;10.366;2023-02-03T12:27:36;115.20;;;58.60;;
43606;SDS011;29197;44.788;10.366;2023-02-03T12:30:33;97.03;;;49.53;;
43606;SDS011;29197;44.788;10.366;2023-02-03T12:33:29;95.63;;;50.17;;
43606;SDS011;29197;44.788;10.366;2023-02-03T12:36:21;97.75;;;50.65;;
43606;SDS011;29197;44.788;10.366;2023-02-03T12:39:14;99.60;;;50.67;;
43606;SDS011;29197;44.788;10.366;2023-02-03T12:42:11;93.43;;;49.42;;
43606;SDS011;29197;44.788;10.366;2023-02-03T12:45:08;94.97;;;43.15;;
43606;SDS011;29197;44.788;10.366;2023-02-03T12:48:01;73.60;;;36.97;;
43606;SDS011;29197;44.788;10.366;2023-02-03T12:50:53;92.00;;;46.40;;
43606;SDS011;29197;44.788;10.366;2023-02-03T12:53:48;87.95;;;45.10;;
43606;SDS011;29197;44.788;10.366;2023-02-03T12:56:41;90.53;;;46.60;;
43606;SDS011;29197;44.788;10.366;2023-02-03T12:59:34;84.53;;;43.53;;
43606;SDS011;29197;44.788;10.366;2023-02-03T13:02:26;85.70;;;45.03;;
43606;SDS011;29197;44.788;10.366;2023-02-03T13:05:21;84.85;;;43.95;;
43606;SDS011;29197;44.788;10.366;2023-02-03T13:08:19;79.72;;;44.20;;
43606;SDS011;29197;44.788;10.366;2023-02-03T13:11:14;77.25;;;40.15;;
43606;SDS011;29197;44.788;10.366;2023-02-03T13:14:09;82.65;;;44.72;;
43606;SDS011;29197;44.788;10.366;2023-02-03T13:17:04;82.60;;;41.63;;
43606;SDS011;29197;44.788;10.366;2023-02-03T13:20:01;70.43;;;38.75;;
43606;SDS011;29197;44.788;10.366;2023-02-03T13:22:56;70.28;;;37.85;;
43606;SDS011;29197;44.788;10.366;2023-02-03T13:25:49;73.13;;;37.40;;
43606;SDS011;29197;44.788;10.366;2023-02-03T13:29:01;71.95;;;37.90;;
43606;SDS011;29197;44.788;10.366;2023-02-03T13:32:00;70.47;;;38.22;;
43606;SDS011;29197;44.788;10.366;2023-02-03T13:35:06;66.60;;;34.88;;
43606;SDS011;29197;44.788;10.366;2023-02-03T13:38:29;64.22;;;34.50;;
43606;SDS011;29197;44.788;10.366;2023-02-03T13:41:35;74.50;;;37.50;;
43606;SDS011;29197;44.788;10.366;2023-02-03T13:44:29;66.03;;;35.20;;
43606;SDS011;29197;44.788;10.366;2023-02-03T13:47:20;67.40;;;37.33;;
43606;SDS011;29197;44.788;10.366;2023-02-03T13:50:16;63.08;;;34.72;;
43606;SDS011;29197;44.788;10.366;2023-02-03T13:53:14;68.70;;;34.58;;
43606;SDS011;29197;44.788;10.366;2023-02-03T13:56:05;64.53;;;35.63;;
43606;SDS011;29197;44.788;10.366;2023-02-03T13:58:58;68.53;;;35.80;;
43606;SDS011;29197;44.788;10.366;2023-02-03T14:01:49;64.22;;;35.05;;
43606;SDS011;29197;44.788;10.366;2023-02-03T14:04:50;70.22;;;35.65;;
43606;SDS011;29197;44.788;10.366;2023-02-03T14:07:42;62.60;;;33.20;;
43606;SDS011;29197;44.788;10.366;2023-02-03T14:10:30;72.93;;;35.95;;
43606;SDS011;29197;44.788;10.366;2023-02-03T14:13:19;62.40;;;32.97;;
43606;SDS011;29197;44.788;10.366;2023-02-03T14:16:12;67.90;;;36.03;;
43606;SDS011;29197;44.788;10.366;2023-02-03T14:19:09;68.72;;;35.28;;
43606;SDS011;29197;44.788;10.366;2023-02-03T14:21:59;64.15;;;33.42;;
43606;SDS011;29197;44.788;10.366;2023-02-03T14:24:52;62.67;;;31.95;;
43606;SDS011;29197;44.788;10.366;2023-02-03T14:27:43;66.47;;;35.30;;
43606;SDS011;29197;44.788;10.366;2023-02-03T14:30:32;69.47;;;35.58;;
43606;SDS011;29197;44.788;10.366;2023-02-03T14:33:20;64.20;;;33.63;;
43606;SDS011;29197;44.788;10.366;2023-02-03T14:36:30;66.88;;;33.63;;
43606;SDS011;29197;44.788;10.366;2023-02-03T14:42:54;56.47;;;31.58;;
43606;SDS011;29197;44.788;10.366;2023-02-03T14:46:10;62.70;;;32.45;;
43606;SDS011;29197;44.788;10.366;2023-02-03T14:49:33;57.60;;;30.95;;
43606;SDS011;29197;44.788;10.366;2023-02-03T14:52:48;71.22;;;35.45;;
43606;SDS011;29197;44.788;10.366;2023-02-03T14:55:55;82.95;;;38.60;;
43606;SDS011;29197;44.788;10.366;2023-02-03T14:58:54;65.78;;;32.75;;
43606;SDS011;29197;44.788;10.366;2023-02-03T15:02:06;62.58;;;33.00;;
43606;SDS011;29197;44.788;10.366;2023-02-03T15:08:29;84.50;;;41.28;;
43606;SDS011;29197;44.788;10.366;2023-02-03T15:11:28;72.22;;;36.65;;
43606;SDS011;29197;44.788;10.366;2023-02-03T15:14:23;72.13;;;37.83;;
43606;SDS011;29197;44.788;10.366;2023-02-03T15:17:18;72.57;;;38.00;;
43606;SDS011;29197;44.788;10.366;2023-02-03T15:20:30;73.20;;;37.10;;
43606;SDS011;29197;44.788;10.366;2023-02-03T15:23:22;107.20;;;49.03;;
43606;SDS011;29197;44.788;10.366;2023-02-03T15:26:12;81.70;;;39.80;;
43606;SDS011;29197;44.788;10.366;2023-02-03T15:29:03;97.00;;;44.25;;
43606;SDS011;29197;44.788;10.366;2023-02-03T15:31:55;75.63;;;37.35;;
43606;SDS011;29197;44.788;10.366;2023-02-03T15:34:51;68.83;;;35.63;;
43606;SDS011;29197;44.788;10.366;2023-02-03T15:37:40;76.47;;;39.70;;
43606;SDS011;29197;44.788;10.366;2023-02-03T15:40:34;86.40;;;42.58;;
43606;SDS011;29197;44.788;10.366;2023-02-03T15:43:26;77.60;;;38.78;;
43606;SDS011;29197;44.788;10.366;2023-02-03T15:46:19;76.37;;;37.97;;
43606;SDS011;29197;44.788;10.366;2023-02-03T15:49:15;73.17;;;36.20;;
43606;SDS011;29197;44.788;10.366;2023-02-03T15:52:08;67.53;;;34.50;;
43606;SDS011;29197;44.788;10.366;2023-02-03T15:55:01;82.17;;;41.27;;
43606;SDS011;29197;44.788;10.366;2023-02-03T15:57:57;79.37;;;40.50;;
43606;SDS011;29197;44.788;10.366;2023-02-03T16:00:47;78.23;;;38.40;;
43606;SDS011;29197;44.788;10.366;2023-02-03T16:03:37;85.43;;;40.45;;
43606;SDS011;29197;44.788;10.366;2023-02-03T16:06:30;81.70;;;39.07;;
43606;SDS011;29197;44.788;10.366;2023-02-03T16:09:28;89.83;;;42.93;;
43606;SDS011;29197;44.788;10.366;2023-02-03T16:12:20;81.87;;;41.70;;
43606;SDS011;29197;44.788;10.366;2023-02-03T16:15:19;94.33;;;44.97;;
43606;SDS011;29197;44.788;10.366;2023-02-03T16:18:11;93.40;;;43.97;;
43606;SDS011;29197;44.788;10.366;2023-02-03T16:21:04;92.23;;;41.80;;
43606;SDS011;29197;44.788;10.366;2023-02-03T16:23:54;90.87;;;41.70;;
43606;SDS011;29197;44.788;10.366;2023-02-03T16:26:42;97.50;;;43.60;;
43606;SDS011;29197;44.788;10.366;2023-02-03T16:29:34;82.60;;;39.70;;
43606;SDS011;29197;44.788;10.366;2023-02-03T16:32:40;86.23;;;41.83;;
43606;SDS011;29197;44.788;10.366;2023-02-03T16:35:46;91.17;;;43.20;;
43606;SDS011;29197;44.788;10.366;2023-02-03T16:38:54;83.80;;;41.03;;
43606;SDS011;29197;44.788;10.366;2023-02-03T16:42:00;86.77;;;40.33;;
43606;SDS011;29197;44.788;10.366;2023-02-03T16:45:17;83.47;;;39.70;;
43606;SDS011;29197;44.788;10.366;2023-02-03T16:48:23;82.40;;;38.97;;
43606;SDS011;29197;44.788;10.366;2023-02-03T16:51:32;86.20;;;39.43;;
43606;SDS011;29197;44.788;10.366;2023-02-03T16:54:26;77.70;;;39.23;;
43606;SDS011;29197;44.788;10.366;2023-02-03T16:57:15;82.37;;;40.73;;
43606;SDS011;29197;44.788;10.366;2023-02-03T17:00:04;88.33;;;43.93;;
43606;SDS011;29197;44.788;10.366;2023-02-03T17:02:54;85.90;;;41.07;;
43606;SDS011;29197;44.788;10.366;2023-02-03T17:05:44;80.47;;;39.53;;
43606;SDS011;29197;44.788;10.366;2023-02-03T17:08:34;78.27;;;39.47;;
43606;SDS011;29197;44.788;10.366;2023-02-03T17:11:24;78.90;;;39.30;;